createdAt,value
2022-11-20T00:01:40.536Z,37.00
2022-11-20T00:04:12.108Z,33.50
2022-11-20T00:06:39.947Z,39.00
2022-11-20T00:09:10.590Z,37.50
2022-11-20T00:11:40.011Z,38.00
2022-11-20T00:14:07.845Z,32.50
2022-11-20T00:16:36.512Z,34.50
2022-11-20T00:19:05.199Z,29.00
2022-11-20T00:21:33.865Z,33.50
2022-11-20T00:24:02.556Z,37.00
2022-11-20T00:26:31.430Z,35.00
2022-11-20T00:29:02.706Z,38.50
2022-11-20T00:31:34.142Z,37.50
2022-11-20T00:34:01.925Z,34.00
2022-11-20T00:36:33.735Z,34.00
2022-11-20T00:39:02.623Z,35.00
2022-11-20T00:41:31.712Z,34.50
2022-11-20T00:44:00.404Z,30.00
2022-11-20T00:46:30.244Z,29.67
2022-11-20T00:48:59.036Z,35.00
2022-11-20T00:51:29.519Z,37.00
2022-11-20T00:54:01.240Z,38.00
2022-11-20T00:56:30.290Z,37.00
2022-11-20T00:59:02.432Z,39.00
2022-11-20T01:01:31.684Z,33.00
2022-11-20T01:04:01.991Z,27.67
2022-11-20T01:06:37.536Z,29.50
2022-11-20T01:09:13.616Z,30.33
2022-11-20T01:11:45.715Z,36.00
2022-11-20T01:14:20.839Z,39.50
2022-11-20T01:16:52.778Z,39.50
2022-11-20T01:19:24.789Z,29.50
2022-11-20T01:21:55.333Z,35.50
2022-11-20T01:24:24.947Z,40.67
2022-11-20T01:26:54.132Z,41.00
2022-11-20T01:29:26.403Z,41.00
2022-11-20T01:31:55.132Z,36.50
2022-11-20T01:34:24.870Z,38.67
2022-11-20T01:36:55.334Z,42.33
2022-11-20T01:39:27.282Z,43.00
2022-11-20T01:42:15.955Z,45.00
2022-11-20T01:45:00.194Z,43.00
2022-11-20T01:47:45.531Z,40.00
2022-11-20T01:50:28.096Z,43.00
2022-11-20T01:53:09.698Z,36.50
2022-11-20T01:55:53.811Z,45.00
2022-11-20T01:58:33.638Z,41.67
2022-11-20T02:01:04.696Z,37.67
2022-11-20T02:03:34.416Z,40.33
2022-11-20T02:06:30.695Z,41.00
2022-11-20T02:09:00.186Z,42.67
2022-11-20T02:11:34.479Z,43.33
2022-11-20T02:14:03.138Z,43.00
2022-11-20T02:16:45.165Z,40.50
2022-11-20T02:19:32.411Z,43.33
2022-11-20T02:22:20.731Z,41.00
2022-11-20T02:24:52.531Z,45.00
2022-11-20T02:27:23.406Z,41.50
2022-11-20T02:30:08.719Z,32.33
2022-11-20T02:32:39.553Z,39.00
2022-11-20T02:35:29.169Z,42.67
2022-11-20T02:38:02.561Z,26.50
2022-11-20T02:40:31.328Z,42.00
2022-11-20T02:43:00.869Z,42.33
2022-11-20T02:45:29.533Z,42.50
2022-11-20T02:47:59.081Z,38.67
2022-11-20T02:50:28.570Z,41.00
2022-11-20T02:52:57.217Z,45.50
2022-11-20T02:55:25.927Z,41.00
2022-11-20T02:57:53.668Z,39.00
2022-11-20T03:00:22.441Z,42.00
2022-11-20T03:02:51.855Z,41.67
2022-11-20T03:05:21.296Z,41.33
2022-11-20T03:07:50.796Z,44.67
2022-11-20T03:10:19.462Z,43.50
2022-11-20T03:12:47.268Z,19.50
2022-11-20T03:15:14.999Z,36.00
2022-11-20T03:17:43.676Z,43.00
2022-11-20T03:20:13.652Z,40.67
2022-11-20T03:22:42.367Z,41.50
2022-11-20T03:25:11.039Z,43.00
2022-11-20T03:27:40.506Z,48.33
2022-11-20T03:30:10.422Z,49.50
2022-11-20T03:32:39.059Z,41.00
2022-11-20T03:35:09.352Z,46.00
2022-11-20T03:37:38.037Z,38.50
2022-11-20T03:40:07.970Z,44.00
2022-11-20T03:42:48.525Z,42.00
2022-11-20T03:45:19.937Z,44.00
2022-11-20T03:47:49.514Z,44.67
2022-11-20T03:50:18.273Z,46.00
2022-11-20T03:52:46.021Z,48.50
2022-11-20T03:55:13.769Z,42.00
2022-11-20T03:57:43.262Z,66.67
2022-11-20T04:00:14.183Z,40.67
2022-11-20T04:02:42.803Z,42.00
2022-11-20T04:05:10.603Z,42.50
2022-11-20T04:07:39.300Z,43.00
2022-11-20T04:10:09.193Z,41.33
2022-11-20T04:12:37.812Z,41.50
2022-11-20T04:15:06.860Z,46.67
2022-11-20T04:17:34.624Z,44.00
2022-11-20T04:20:04.979Z,45.00
2022-11-20T04:22:32.770Z,48.00
2022-11-20T04:25:02.205Z,52.00
2022-11-20T04:27:32.791Z,73.67
2022-11-20T04:30:01.504Z,45.50
2022-11-20T04:32:30.970Z,45.33
2022-11-20T04:35:00.470Z,46.67
2022-11-20T04:37:29.123Z,48.50
2022-11-20T04:39:57.806Z,46.00
2022-11-20T04:42:29.387Z,44.50
2022-11-20T04:44:59.284Z,43.00
2022-11-20T04:47:28.032Z,43.00
2022-11-20T04:49:55.909Z,43.00
2022-11-20T04:52:24.669Z,43.00
2022-11-20T04:54:54.484Z,40.00
2022-11-20T04:57:23.920Z,44.33
2022-11-20T04:59:52.660Z,43.50
2022-11-20T05:02:22.395Z,44.50
2022-11-20T05:04:50.357Z,43.50
2022-11-20T05:07:18.162Z,43.50
2022-11-20T05:09:46.804Z,47.00
2022-11-20T05:12:15.447Z,41.50
2022-11-20T05:14:44.913Z,52.00
2022-11-20T05:17:13.935Z,47.00
2022-11-20T05:19:42.591Z,44.00
2022-11-20T05:22:12.033Z,40.67
2022-11-20T05:24:40.728Z,43.50
2022-11-20T05:27:10.243Z,49.00
2022-11-20T05:29:39.736Z,51.33
2022-11-20T05:32:10.859Z,41.50
2022-11-20T05:34:38.560Z,39.00
2022-11-20T05:37:07.961Z,40.67
2022-11-20T05:39:37.413Z,33.67
2022-11-20T05:42:25.495Z,42.00
2022-11-20T05:44:54.180Z,41.50
2022-11-20T05:47:22.829Z,40.50
2022-11-20T05:49:51.520Z,46.00
2022-11-20T05:52:19.427Z,51.00
2022-11-20T05:54:48.092Z,39.50
2022-11-20T05:57:17.481Z,44.00
2022-11-20T05:59:45.267Z,42.00
2022-11-20T06:02:13.222Z,25.00
2022-11-20T06:04:43.016Z,40.00
2022-11-20T06:07:12.688Z,53.67
2022-11-20T06:09:41.762Z,49.50
2022-11-20T06:12:14.111Z,53.00
2022-11-20T06:14:42.870Z,45.00
2022-11-20T06:17:12.374Z,55.67
2022-11-20T06:19:41.868Z,58.00
2022-11-20T06:22:11.309Z,57.33
2022-11-20T06:24:40.777Z,49.00
2022-11-20T06:27:09.432Z,41.00
2022-11-20T06:29:38.070Z,39.00
2022-11-20T06:32:07.495Z,40.33
2022-11-20T06:34:36.938Z,40.33
2022-11-20T06:37:06.476Z,43.33
2022-11-20T06:39:35.955Z,41.67
2022-11-20T06:42:04.689Z,44.00
2022-11-20T06:44:33.922Z,48.50
2022-11-20T06:47:02.621Z,49.00
2022-11-20T06:49:32.193Z,54.00
2022-11-20T06:51:59.886Z,44.50
2022-11-20T06:54:28.534Z,45.00
2022-11-20T06:56:57.983Z,55.33
2022-11-20T06:59:27.446Z,51.67
2022-11-20T07:01:57.186Z,59.67
2022-11-20T07:04:26.660Z,51.33
2022-11-20T07:06:56.111Z,51.67
2022-11-20T07:09:25.717Z,41.00
2022-11-20T07:11:55.272Z,40.00
2022-11-20T07:14:24.705Z,43.67
2022-11-20T07:16:53.758Z,42.00
2022-11-20T07:19:22.606Z,46.00
2022-11-20T07:21:52.202Z,49.33
2022-11-20T07:24:21.648Z,51.00
2022-11-20T07:26:51.073Z,47.33
2022-11-20T07:29:20.067Z,42.00
2022-11-20T07:31:50.136Z,44.33
2022-11-20T07:34:19.547Z,44.33
2022-11-20T07:36:49.084Z,44.00
2022-11-20T07:39:18.635Z,43.67
2022-11-20T07:41:48.220Z,43.67
2022-11-20T07:44:17.616Z,46.67
2022-11-20T07:46:47.204Z,44.00
2022-11-20T07:49:16.674Z,50.67
2022-11-20T07:51:47.939Z,46.67
2022-11-20T07:54:22.392Z,48.33
2022-11-20T07:56:51.968Z,49.67
2022-11-20T07:59:21.722Z,49.00
2022-11-20T08:01:51.442Z,48.33
2022-11-20T08:04:20.947Z,49.00
2022-11-20T08:06:50.492Z,47.00
2022-11-20T08:09:20.276Z,48.33
2022-11-20T08:12:07.749Z,49.50
2022-11-20T08:14:37.265Z,50.00
2022-11-20T08:17:06.723Z,48.00
2022-11-20T08:19:35.377Z,47.00
2022-11-20T08:22:04.055Z,49.00
2022-11-20T08:24:33.616Z,43.00
2022-11-20T08:27:03.222Z,56.00
2022-11-20T08:29:32.729Z,54.67
2022-11-20T08:32:02.200Z,51.00
2022-11-20T08:34:31.618Z,51.33
2022-11-20T08:37:03.274Z,51.67
2022-11-20T08:39:32.747Z,49.00
2022-11-20T08:42:01.449Z,52.50
2022-11-20T08:44:30.968Z,50.67
2022-11-20T08:47:00.393Z,49.67
2022-11-20T08:49:29.018Z,46.00
2022-11-20T08:51:59.003Z,48.00
2022-11-20T08:54:28.445Z,54.00
2022-11-20T08:56:57.950Z,54.33
2022-11-20T08:59:50.798Z,54.33
2022-11-20T09:02:16.900Z,55.67
2022-11-20T09:04:46.355Z,57.33
2022-11-20T09:07:15.867Z,51.00
2022-11-20T09:09:46.428Z,58.33
2022-11-20T09:12:16.062Z,56.33
2022-11-20T09:14:45.472Z,51.33
2022-11-20T09:17:16.061Z,44.33
2022-11-20T09:19:45.933Z,45.67
2022-11-20T09:22:14.788Z,45.50
2022-11-20T09:24:44.208Z,44.67
2022-11-20T09:27:13.663Z,47.00
2022-11-20T09:29:43.062Z,43.00
2022-11-20T09:32:12.443Z,50.67
2022-11-20T09:34:41.870Z,43.00
2022-11-20T09:37:11.326Z,44.33
2022-11-20T09:39:40.822Z,40.00
2022-11-20T09:42:41.778Z,40.00
2022-11-20T09:45:45.348Z,40.00
2022-11-20T09:48:52.097Z,49.00
2022-11-20T09:51:52.809Z,43.00
2022-11-20T09:54:32.854Z,43.33
2022-11-20T09:57:20.298Z,51.00
2022-11-20T09:59:57.807Z,43.00
2022-11-20T10:02:50.494Z,48.00
2022-11-20T10:05:51.444Z,46.00
2022-11-20T10:08:37.128Z,46.00
2022-11-20T10:11:34.926Z,58.67
2022-11-20T10:14:26.517Z,50.33
2022-11-20T10:17:56.602Z,53.00
2022-11-20T10:21:05.134Z,56.67
2022-11-20T10:24:04.188Z,58.00
2022-11-20T10:27:15.103Z,62.67
2022-11-20T10:30:17.934Z,52.00
2022-11-20T10:34:10.693Z,48.67
2022-11-20T10:37:18.033Z,50.67
2022-11-20T10:40:25.974Z,56.00
2022-11-20T10:43:25.600Z,51.00
2022-11-20T10:46:22.774Z,38.00
2022-11-20T10:48:53.261Z,50.67
2022-11-20T10:52:11.665Z,53.33
2022-11-20T10:55:33.503Z,46.00
2022-11-20T10:58:24.548Z,46.00
2022-11-20T11:01:03.869Z,51.33
2022-11-20T11:03:33.704Z,50.00
2022-11-20T11:06:24.504Z,45.67
2022-11-20T11:08:58.169Z,51.33
2022-11-20T11:11:35.577Z,42.33
2022-11-20T11:14:15.348Z,44.50
2022-11-20T11:16:58.225Z,42.50
2022-11-20T11:19:27.650Z,46.67
2022-11-20T11:21:58.492Z,41.33
2022-11-20T11:24:46.733Z,42.33
2022-11-20T11:27:19.151Z,12.20
2022-11-20T11:29:48.859Z,38.33
2022-11-20T11:32:23.216Z,42.33
2022-11-20T11:35:23.123Z,42.00
2022-11-20T11:37:56.701Z,51.75
2022-11-20T11:40:37.607Z,41.33
2022-11-20T11:43:41.534Z,42.33
2022-11-20T11:46:56.951Z,40.33
2022-11-20T11:49:25.899Z,35.00
2022-11-20T11:52:23.766Z,38.00
2022-11-20T11:55:02.552Z,44.00
2022-11-20T11:57:58.943Z,48.67
2022-11-20T12:00:28.707Z,44.67
2022-11-20T12:03:29.857Z,50.67
2022-11-20T12:06:15.983Z,45.67
2022-11-20T12:09:06.680Z,51.33
2022-11-20T12:12:11.788Z,44.00
2022-11-20T12:14:47.752Z,38.00
2022-11-20T12:17:20.254Z,30.33
2022-11-20T12:19:49.688Z,37.33
2022-11-20T12:22:53.930Z,46.00
2022-11-20T12:25:33.131Z,41.50
2022-11-20T12:29:01.014Z,38.00
2022-11-20T12:32:23.748Z,35.00
2022-11-20T12:35:36.645Z,41.00
2022-11-20T12:38:54.199Z,32.67
2022-11-20T12:42:34.436Z,42.67
2022-11-20T12:45:15.474Z,40.50
2022-11-20T12:48:18.213Z,38.33
2022-11-20T12:51:43.714Z,48.67
2022-11-20T12:54:47.663Z,47.00
2022-11-20T12:58:14.125Z,48.00
2022-11-20T13:01:48.899Z,53.00
2022-11-20T13:04:48.952Z,57.00
2022-11-20T13:07:19.828Z,45.67
2022-11-20T13:09:55.005Z,44.67
2022-11-20T13:12:43.038Z,41.00
2022-11-20T13:16:08.010Z,48.00
2022-11-20T13:18:43.785Z,49.50
2022-11-20T13:21:24.175Z,46.33
2022-11-20T13:23:53.670Z,52.67
2022-11-20T13:26:25.892Z,40.33
2022-11-20T13:29:19.600Z,49.33
2022-11-20T13:31:50.240Z,46.00
2022-11-20T13:34:29.007Z,44.67
2022-11-20T13:37:04.953Z,42.33
2022-11-20T13:39:38.592Z,45.00
2022-11-20T13:42:13.935Z,44.00
2022-11-20T13:44:55.531Z,43.67
2022-11-20T13:47:28.633Z,46.00
2022-11-20T13:50:00.449Z,50.50
2022-11-20T13:52:35.695Z,43.00
2022-11-20T13:55:27.563Z,20.33
2022-11-20T13:58:43.350Z,40.67
2022-11-20T14:01:24.436Z,38.50
2022-11-20T14:04:10.375Z,45.00
2022-11-20T14:06:48.568Z,43.00
2022-11-20T14:09:31.999Z,45.67
2022-11-20T14:12:03.252Z,44.33
2022-11-20T14:14:37.462Z,48.67
2022-11-20T14:17:34.425Z,46.33
2022-11-20T14:20:12.520Z,41.50
2022-11-20T14:22:51.753Z,46.33
2022-11-20T14:25:32.189Z,45.33
2022-11-20T14:28:04.425Z,46.00
2022-11-20T14:30:49.883Z,81.67
2022-11-20T14:33:20.895Z,60.33
2022-11-20T14:35:58.434Z,45.00
2022-11-20T14:38:33.802Z,49.67
2022-11-20T14:41:30.453Z,49.33
2022-11-20T14:44:00.874Z,40.00
2022-11-20T14:46:30.099Z,41.00
2022-11-20T14:49:03.585Z,59.00
2022-11-20T14:51:42.591Z,75.50
2022-11-20T14:54:25.144Z,86.00
2022-11-20T14:57:02.530Z,83.00
2022-11-20T14:59:35.349Z,86.67
2022-11-20T15:02:11.941Z,106.00
2022-11-20T15:05:00.372Z,153.50
2022-11-20T15:07:41.394Z,119.20
2022-11-20T15:10:32.723Z,109.00
2022-11-20T15:13:38.463Z,63.33
2022-11-20T15:16:21.788Z,70.67
2022-11-20T15:18:51.609Z,115.25
2022-11-20T15:21:23.427Z,90.14
2022-11-20T15:23:52.975Z,90.00
2022-11-20T15:26:29.777Z,68.50
2022-11-20T15:28:59.671Z,67.33
2022-11-20T15:31:29.261Z,68.33
2022-11-20T15:33:58.974Z,68.67
2022-11-20T15:36:28.515Z,61.33
2022-11-20T15:38:58.066Z,71.00
2022-11-20T15:41:28.442Z,97.50
2022-11-20T15:43:58.879Z,116.75
2022-11-20T15:46:39.446Z,157.50
2022-11-20T15:49:16.744Z,189.75
2022-11-20T15:51:51.854Z,170.00
2022-11-20T15:54:24.667Z,166.88
2022-11-20T15:56:57.530Z,172.13
2022-11-20T15:59:27.119Z,171.25
2022-11-20T16:01:54.960Z,144.50
2022-11-20T16:04:25.284Z,175.00
2022-11-20T16:06:55.185Z,157.00
2022-11-20T16:09:24.754Z,137.00
2022-11-20T16:11:55.112Z,142.75
2022-11-20T16:14:41.584Z,138.50
2022-11-20T16:17:15.740Z,119.20
2022-11-20T16:19:46.232Z,115.25
2022-11-20T16:22:14.031Z,130.50
2022-11-20T16:24:44.575Z,140.75
2022-11-20T16:27:16.477Z,128.29
2022-11-20T16:29:47.739Z,126.00
2022-11-20T16:32:16.608Z,115.50
2022-11-20T16:34:46.971Z,133.00
2022-11-20T16:37:17.582Z,129.25
2022-11-20T16:39:45.388Z,139.00
2022-11-20T16:42:13.192Z,137.00
2022-11-20T16:44:46.490Z,155.00
2022-11-20T16:47:17.773Z,146.00
2022-11-20T16:49:47.350Z,154.00
2022-11-20T16:52:17.837Z,150.50
2022-11-20T16:54:48.296Z,147.00
2022-11-20T16:57:17.867Z,149.25
2022-11-20T16:59:45.671Z,137.00
2022-11-20T17:02:16.968Z,141.75
2022-11-20T17:04:47.417Z,129.25
2022-11-20T17:07:17.060Z,142.67
2022-11-20T17:09:46.748Z,171.50
2022-11-20T17:12:16.460Z,168.00
2022-11-20T17:14:46.156Z,168.00
2022-11-20T17:17:14.022Z,143.50
2022-11-20T17:19:43.603Z,152.50
2022-11-20T17:22:11.357Z,166.00
2022-11-20T17:24:41.834Z,213.33
2022-11-20T17:27:11.682Z,166.75
2022-11-20T17:29:42.223Z,184.00
2022-11-20T17:32:12.074Z,174.50
2022-11-20T17:34:41.815Z,180.75
2022-11-20T17:37:11.461Z,199.25
2022-11-20T17:39:41.936Z,210.25
2022-11-20T17:42:30.101Z,186.75
2022-11-20T17:44:59.833Z,193.25
2022-11-20T17:47:29.436Z,183.00
2022-11-20T17:49:59.146Z,165.00
2022-11-20T17:52:28.804Z,154.75
2022-11-20T17:54:59.746Z,159.50
2022-11-20T17:57:52.231Z,161.00
2022-11-20T18:00:25.933Z,156.50
2022-11-20T18:02:56.573Z,164.25
2022-11-20T18:05:27.444Z,162.00
2022-11-20T18:07:57.177Z,164.50
2022-11-20T18:10:30.167Z,179.00
2022-11-20T18:12:59.849Z,234.25
2022-11-20T18:15:30.158Z,201.50
2022-11-20T18:17:59.784Z,187.50
2022-11-20T18:20:32.982Z,184.50
2022-11-20T18:23:03.174Z,170.00
2022-11-20T18:25:32.788Z,191.00
2022-11-20T18:28:02.403Z,218.00
2022-11-20T18:30:32.016Z,216.50
2022-11-20T18:33:01.643Z,228.25
2022-11-20T18:35:32.421Z,206.75
2022-11-20T18:38:02.930Z,200.00
2022-11-20T18:40:36.886Z,200.50
2022-11-20T18:43:25.176Z,171.25
2022-11-20T18:46:03.990Z,164.50
2022-11-20T18:48:33.668Z,113.67
2022-11-20T18:51:08.029Z,194.50
2022-11-20T18:53:44.349Z,202.50
2022-11-20T18:56:16.742Z,218.00
2022-11-20T18:58:46.368Z,218.00
2022-11-20T19:01:16.061Z,185.50
2022-11-20T19:03:47.290Z,230.75
2022-11-20T19:06:18.495Z,229.00
2022-11-20T19:08:49.304Z,199.75
2022-11-20T19:11:20.953Z,207.33
2022-11-20T19:13:51.435Z,220.00
2022-11-20T19:16:22.635Z,218.33
2022-11-20T19:18:54.177Z,189.00
2022-11-20T19:21:26.933Z,188.75
2022-11-20T19:24:01.148Z,187.50
2022-11-20T19:26:31.123Z,134.00
2022-11-20T19:29:00.048Z,98.00
2022-11-20T19:31:29.989Z,94.67
2022-11-20T19:34:04.804Z,90.00
2022-11-20T19:36:43.129Z,91.33
2022-11-20T19:39:15.545Z,93.00
2022-11-20T19:41:45.198Z,83.00
2022-11-20T19:44:19.926Z,113.00
2022-11-20T19:46:51.074Z,111.75
2022-11-20T19:49:20.930Z,101.33
2022-11-20T19:51:51.785Z,144.00
2022-11-20T19:54:19.656Z,186.50
2022-11-20T19:56:52.060Z,128.00
2022-11-20T19:59:22.949Z,118.25
2022-11-20T20:01:53.691Z,110.75
2022-11-20T20:04:24.187Z,102.75
2022-11-20T20:06:53.771Z,103.67
2022-11-20T20:09:26.739Z,112.25
2022-11-20T20:11:57.441Z,109.75
2022-11-20T20:14:27.115Z,59.00
2022-11-20T20:16:57.675Z,103.75
2022-11-20T20:19:27.481Z,91.67
2022-11-20T20:21:59.759Z,93.33
2022-11-20T20:24:31.785Z,97.67
2022-11-20T20:27:02.230Z,106.00
2022-11-20T20:29:31.521Z,113.50
2022-11-20T20:32:02.057Z,110.75
2022-11-20T20:34:32.523Z,123.25
2022-11-20T20:37:05.273Z,119.25
2022-11-20T20:39:35.870Z,114.75
2022-11-20T20:42:04.634Z,102.33
2022-11-20T20:44:53.644Z,116.75
2022-11-20T20:47:24.185Z,116.25
2022-11-20T20:49:54.624Z,117.75
2022-11-20T20:52:28.101Z,107.75
2022-11-20T20:54:58.594Z,174.25
2022-11-20T20:57:29.319Z,153.00
2022-11-20T20:59:59.024Z,207.33
2022-11-20T21:02:28.786Z,280.00
2022-11-20T21:04:59.710Z,131.00
2022-11-20T21:07:30.205Z,151.50
2022-11-20T21:09:57.983Z,117.50
2022-11-20T21:12:27.607Z,112.00
2022-11-20T21:14:57.283Z,87.33
2022-11-20T21:17:27.725Z,67.67
2022-11-20T21:19:57.246Z,72.67
2022-11-20T21:22:26.851Z,83.67
2022-11-20T21:24:56.388Z,66.00
2022-11-20T21:27:25.963Z,74.33
2022-11-20T21:29:58.259Z,66.00
2022-11-20T21:32:27.723Z,75.00
2022-11-20T21:34:57.295Z,75.67
2022-11-20T21:37:26.830Z,73.00
2022-11-20T21:39:56.345Z,61.00
2022-11-20T21:42:25.882Z,65.00
2022-11-20T21:44:55.384Z,62.67
2022-11-20T21:47:27.863Z,64.00
2022-11-20T21:49:57.332Z,61.67
2022-11-20T21:52:26.904Z,61.33
2022-11-20T21:54:56.355Z,58.33
2022-11-20T21:57:25.836Z,60.33
2022-11-20T21:59:55.330Z,67.00
2022-11-20T22:02:24.941Z,76.00
2022-11-20T22:04:54.532Z,75.33
2022-11-20T22:07:24.085Z,72.33
2022-11-20T22:09:53.671Z,68.33
2022-11-20T22:12:23.575Z,68.00
2022-11-20T22:14:53.067Z,69.00
2022-11-20T22:17:42.493Z,64.00
2022-11-20T22:20:12.200Z,61.67
2022-11-20T22:22:41.795Z,66.00
2022-11-20T22:25:11.315Z,61.00
2022-11-20T22:27:40.886Z,66.67
2022-11-20T22:30:11.285Z,63.00
2022-11-20T22:32:40.736Z,66.00
2022-11-20T22:35:10.439Z,62.67
2022-11-20T22:37:39.987Z,65.33
2022-11-20T22:40:10.565Z,62.00
2022-11-20T22:42:40.149Z,68.00
2022-11-20T22:45:11.040Z,63.00
2022-11-20T22:47:41.199Z,65.67
2022-11-20T22:50:10.836Z,63.67
2022-11-20T22:52:40.335Z,61.00
2022-11-20T22:55:15.978Z,66.00
2022-11-20T22:57:45.869Z,68.33
2022-11-20T23:00:16.409Z,70.33
2022-11-20T23:02:46.762Z,77.67
2022-11-20T23:05:16.279Z,71.00
2022-11-20T23:07:45.987Z,72.67
2022-11-20T23:10:15.639Z,90.33
2022-11-20T23:12:45.190Z,69.67
2022-11-20T23:15:14.900Z,71.67
2022-11-20T23:17:44.490Z,76.33
2022-11-20T23:20:14.211Z,71.67
2022-11-20T23:22:43.717Z,70.33
2022-11-20T23:25:13.234Z,74.00
2022-11-20T23:27:42.842Z,69.00
2022-11-20T23:30:12.990Z,73.33
2022-11-20T23:32:42.536Z,71.00
2022-11-20T23:35:12.153Z,69.33
2022-11-20T23:37:41.682Z,74.67
2022-11-20T23:40:11.871Z,74.67
2022-11-20T23:43:01.400Z,69.00
2022-11-20T23:45:31.048Z,69.00
2022-11-20T23:48:00.590Z,70.33
2022-11-20T23:50:30.154Z,70.33
2022-11-20T23:52:59.739Z,71.67
2022-11-20T23:55:29.295Z,71.00
2022-11-20T23:57:58.909Z,68.67
